Time;durP1;ratioP1;P1;durP2;ratioP2;P2;SDS_P1;SDS_P2;PMS_P1;PMS_P2;Temp;Humidity;BMP_temperature;BMP_pressure;BME280_temperature;BME280_humidity;BME280_pressure;Samples;Min_cycle;Max_cycle;Signal;HPM_P1;HPM_P2
2021/09/15 00:01:56;;;;;;;;;;;16.70;85.30;;;;;;5011317;28;19921;-61
2021/09/15 00:04:21;;;;;;;;;;;16.70;85.30;;;;;;5012541;28;19917;-61
2021/09/15 00:06:47;;;;;;;;;;;16.70;84.90;;;;;;5011870;28;20345;-61
2021/09/15 00:09:13;;;;;;;;;;;16.60;85.30;;;;;;5012733;28;20344;-61
2021/09/15 00:11:38;;;;;;;;;;;16.70;85.30;;;;;;5012228;28;20309;-61
2021/09/15 00:14:04;;;;;;;;;;;16.60;85.30;;;;;;4995245;28;20467;-61
2021/09/15 00:16:30;;;;;;;;;;;16.60;84.80;;;;;;5012113;28;20393;-61
2021/09/15 00:18:56;;;;;;;;;;;16.60;85.30;;;;;;5012249;28;19925;-61
2021/09/15 00:21:21;;;;;;;;;;;16.60;85.30;;;;;;5012425;28;20297;-61
2021/09/15 00:23:47;;;;;;;;;;;16.60;85.30;;;;;;5011919;28;19917;-61
2021/09/15 00:26:14;;;;;;;;;;;16.50;84.90;;;;;;5011503;28;21353;-61
2021/09/15 00:28:40;;;;;;;;;;;16.50;85.30;;;;;;5010716;28;20005;-61
2021/09/15 00:31:05;;;;;;;;;;;16.50;85.30;;;;;;4994882;28;19917;-61
2021/09/15 00:33:31;;;;;;;;;;;16.50;85.40;;;;;;5011725;28;20407;-61
2021/09/15 00:35:56;;;;;;;;;;;16.40;85.10;;;;;;5010880;28;19917;-61
2021/09/15 00:38:22;;;;;;;;;;;16.50;85.70;;;;;;5010982;28;19918;-61
2021/09/15 00:40:47;;;;;;;;;;;16.40;85.70;;;;;;5011755;28;19922;-61
2021/09/15 00:43:13;;;;;;;;;;;16.40;85.80;;;;;;5012198;28;19918;-61
2021/09/15 00:45:39;;;;;;;;;;;16.40;85.50;;;;;;5011474;28;19924;-61
2021/09/15 00:48:04;;;;;;;;;;;16.40;85.90;;;;;;5012193;28;19917;-61
2021/09/15 00:50:30;;;;;;;;;;;16.40;85.90;;;;;;4994176;28;19970;-61
2021/09/15 00:52:55;;;;;;;;;;;16.40;86.00;;;;;;5012055;28;20873;-61
2021/09/15 00:55:22;;;;;;;;;;;16.40;85.70;;;;;;5010910;28;19918;-62
2021/09/15 00:57:48;;;;;;;;;;;16.30;86.10;;;;;;5011697;28;20476;-62
2021/09/15 01:00:14;;;;;;;;;;;16.40;86.20;;;;;;5010668;28;20003;-61
2021/09/15 01:02:42;;;;;;;;;;;16.30;86.30;;;;;;5011521;28;19924;-62
2021/09/15 01:05:11;;;;;;;;;;;16.30;86.00;;;;;;4993709;28;19925;-61
2021/09/15 01:07:37;;;;;;;;;;;16.30;86.50;;;;;;5011717;28;20255;-61
2021/09/15 01:10:05;;;;;;;;;;;16.30;86.50;;;;;;4994262;28;19921;-61
2021/09/15 01:12:36;;;;;;;;;;;16.30;86.60;;;;;;5010342;28;19918;-61
2021/09/15 01:15:20;;;;;;;;;;;16.30;86.30;;;;;;5011389;28;19963;-61
2021/09/15 01:17:56;;;;;;;;;;;16.30;86.70;;;;;;5010153;28;19960;-61
2021/09/15 01:20:51;;;;;;;;;;;16.30;86.70;;;;;;5011207;28;19959;-61
2021/09/15 01:23:34;;;;;;;;;;;17.40;87.40;;;;;;4994117;28;19922;-61
2021/09/15 01:26:14;;;;;;;;;;;16.30;86.40;;;;;;5011167;28;19983;-61
2021/09/15 01:29:17;;;;;;;;;;;16.30;86.90;;;;;;5011294;28;19918;-61
2021/09/15 01:31:58;;;;;;;;;;;16.30;86.80;;;;;;4978046;28;19924;-61
2021/09/15 01:34:26;;;;;;;;;;;16.30;86.90;;;;;;4993240;28;19917;-61
2021/09/15 01:36:51;;;;;;;;;;;16.20;86.50;;;;;;5011681;28;19914;-61
2021/09/15 01:39:18;;;;;;;;;;;16.30;87.00;;;;;;4993643;28;19932;-61
2021/09/15 01:41:44;;;;;;;;;;;16.30;86.90;;;;;;5010290;28;19921;-61
2021/09/15 01:44:09;;;;;;;;;;;16.30;87.00;;;;;;5009932;28;19922;-61
2021/09/15 01:46:35;;;;;;;;;;;16.30;86.60;;;;;;4993652;28;19913;-61
2021/09/15 01:49:01;;;;;;;;;;;16.30;87.10;;;;;;5011434;28;20004;-62
2021/09/15 01:51:26;;;;;;;;;;;16.30;87.00;;;;;;5011166;28;19917;-61
2021/09/15 01:53:52;;;;;;;;;;;16.30;87.10;;;;;;5011546;28;20048;-61
2021/09/15 01:56:17;;;;;;;;;;;16.30;86.70;;;;;;5009484;28;20008;-61
2021/09/15 01:59:09;;;;;;;;;;;16.30;87.10;;;;;;5010346;28;20060;-61
2021/09/15 02:02:11;;;;;;;;;;;16.30;87.10;;;;;;5010346;28;19965;-61
2021/09/15 02:04:49;;;;;;;;;;;16.30;86.80;;;;;;4993038;28;19929;-61
2021/09/15 02:07:37;;;;;;;;;;;16.30;87.20;;;;;;4995884;28;19925;-62
2021/09/15 02:10:23;;;;;;;;;;;16.30;87.20;;;;;;5000902;28;19917;-61
2021/09/15 02:12:48;;;;;;;;;;;16.30;87.20;;;;;;5013205;28;19922;-61
2021/09/15 02:15:14;;;;;;;;;;;16.20;86.80;;;;;;4980725;28;19941;-61
2021/09/15 02:17:44;;;;;;;;;;;16.20;87.20;;;;;;4996717;28;19914;-61
2021/09/15 02:20:24;;;;;;;;;;;16.20;87.30;;;;;;5013435;28;19967;-61
2021/09/15 02:23:10;;;;;;;;;;;16.20;87.30;;;;;;4992508;28;19918;-61
2021/09/15 02:25:56;;;;;;;;;;;16.20;87.00;;;;;;5013816;28;19917;-61
2021/09/15 02:28:32;;;;;;;;;;;16.20;87.50;;;;;;4996841;28;20365;-61
2021/09/15 02:31:17;;;;;;;;;;;16.20;87.50;;;;;;5014060;28;19971;-61
2021/09/15 02:33:58;;;;;;;;;;;16.20;87.60;;;;;;4996931;28;19971;-61
2021/09/15 02:36:28;;;;;;;;;;;16.20;87.10;;;;;;5012503;28;19917;-61
2021/09/15 02:39:10;;;;;;;;;;;16.20;87.50;;;;;;4996782;28;20000;-61
2021/09/15 02:41:54;;;;;;;;;;;16.20;87.60;;;;;;5012753;28;19944;-61
2021/09/15 02:44:40;;;;;;;;;;;16.20;87.30;;;;;;4995796;28;19921;-61
2021/09/15 02:47:17;;;;;;;;;;;16.20;87.70;;;;;;5013054;28;19918;-61
2021/09/15 02:50:09;;;;;;;;;;;16.20;87.70;;;;;;5012575;28;19952;-61
2021/09/15 02:53:02;;;;;;;;;;;16.20;87.80;;;;;;4996648;28;19917;-61
2021/09/15 02:56:06;;;;;;;;;;;16.20;87.40;;;;;;4994006;28;20056;-61
2021/09/15 02:58:50;;;;;;;;;;;16.20;87.80;;;;;;5013613;28;20014;-61
2021/09/15 03:01:31;;;;;;;;;;;16.20;87.90;;;;;;5012635;28;19928;-61
2021/09/15 03:04:11;;;;;;;;;;;16.20;87.90;;;;;;4995938;28;20284;-61
2021/09/15 03:06:49;;;;;;;;;;;16.20;87.50;;;;;;5067194;22;19925;-64
2021/09/15 03:09:22;;;;;;;;;;;16.20;87.90;;;;;;5015592;28;20283;-63
2021/09/15 03:11:48;;;;;;;;;;;16.20;88.00;;;;;;5015805;28;19917;-63
2021/09/15 03:14:13;;;;;;;;;;;16.20;88.60;;;;;;5015290;28;19917;-63
2021/09/15 03:16:39;;;;;;;;;;;16.20;88.10;;;;;;4999725;28;20280;-64
2021/09/15 03:19:08;;;;;;;;;;;16.20;88.10;;;;;;5011327;28;19925;-64
2021/09/15 03:21:39;;;;;;;;;;;16.30;88.20;;;;;;4995930;28;19921;-64
2021/09/15 03:24:05;;;;;;;;;;;16.50;88.40;;;;;;5028310;28;19930;-64
2021/09/15 03:26:31;;;;;;;;;;;16.20;88.20;;;;;;5012041;28;19917;-63
2021/09/15 03:28:56;;;;;;;;;;;16.20;88.20;;;;;;4995751;28;19918;-64
2021/09/15 03:31:22;;;;;;;;;;;16.20;88.20;;;;;;4995709;28;20347;-64
2021/09/15 03:33:48;;;;;;;;;;;16.10;87.70;;;;;;4995765;28;19963;-64
2021/09/15 03:36:17;;;;;;;;;;;16.20;88.40;;;;;;5027919;28;19917;-63
2021/09/15 03:38:43;;;;;;;;;;;16.20;88.40;;;;;;4995645;28;19940;-64
2021/09/15 03:41:09;;;;;;;;;;;16.10;88.40;;;;;;4995242;28;20008;-64
2021/09/15 03:43:34;;;;;;;;;;;16.10;88.60;;;;;;4995564;28;20085;-63
2021/09/15 03:46:01;;;;;;;;;;;16.10;88.70;;;;;;5027558;28;20321;-64
2021/09/15 03:48:27;;;;;;;;;;;16.10;88.60;;;;;;4995803;28;19956;-64
2021/09/15 03:50:52;;;;;;;;;;;16.10;88.70;;;;;;4995037;28;19918;-64
2021/09/15 03:53:20;;;;;;;;;;;16.10;88.90;;;;;;5028326;28;19917;-64
2021/09/15 03:55:45;;;;;;;;;;;16.00;89.00;;;;;;5012134;28;19917;-64
2021/09/15 03:58:11;;;;;;;;;;;16.00;89.10;;;;;;5028299;28;19928;-64
2021/09/15 04:00:37;;;;;;;;;;;16.00;89.20;;;;;;5011574;28;20377;-64
2021/09/15 04:03:03;;;;;;;;;;;16.00;89.40;;;;;;4994910;28;19918;-64
2021/09/15 04:05:31;;;;;;;;;;;16.00;89.50;;;;;;5011145;28;19983;-64
2021/09/15 04:07:57;;;;;;;;;;;15.90;90.00;;;;;;4994827;28;19917;-64
2021/09/15 04:10:23;;;;;;;;;;;15.90;89.70;;;;;;4995216;28;19972;-64
2021/09/15 04:12:48;;;;;;;;;;;15.90;89.90;;;;;;5010846;28;19914;-64
2021/09/15 04:15:14;;;;;;;;;;;15.80;90.00;;;;;;5011086;28;20451;-64
2021/09/15 04:17:42;;;;;;;;;;;15.80;90.10;;;;;;4994565;28;20377;-64
2021/09/15 04:20:08;;;;;;;;;;;15.70;90.20;;;;;;5011259;28;19917;-64
2021/09/15 04:22:36;;;;;;;;;;;15.70;90.30;;;;;;5011328;28;20381;-64
2021/09/15 04:33:15;;;;;;;;;;;15.70;90.60;;;;;;4994446;28;19921;-64
2021/09/15 04:35:41;;;;;;;;;;;15.70;90.60;;;;;;4994430;28;19917;-64
2021/09/15 04:38:06;;;;;;;;;;;15.70;90.70;;;;;;4993778;28;20347;-64
2021/09/15 04:40:32;;;;;;;;;;;15.70;90.80;;;;;;4994439;28;19921;-64
2021/09/15 04:42:58;;;;;;;;;;;15.70;90.80;;;;;;5011942;28;19918;-64
2021/09/15 04:45:25;;;;;;;;;;;15.70;90.90;;;;;;5027275;28;20292;-62
2021/09/15 04:47:51;;;;;;;;;;;15.70;91.00;;;;;;4994254;28;19987;-64
2021/09/15 04:50:17;;;;;;;;;;;15.70;91.00;;;;;;4994791;28;20377;-63
2021/09/15 04:52:43;;;;;;;;;;;15.60;91.00;;;;;;5010995;28;19925;-64
2021/09/15 04:55:09;;;;;;;;;;;15.60;91.10;;;;;;5026537;28;19917;-64
2021/09/15 04:57:34;;;;;;;;;;;15.60;91.20;;;;;;4994513;28;19921;-63
2021/09/15 05:00:00;;;;;;;;;;;15.60;91.20;;;;;;4994083;28;19918;-64
2021/09/15 05:02:27;;;;;;;;;;;15.60;91.30;;;;;;4994066;28;19931;-63
2021/09/15 05:04:55;;;;;;;;;;;15.60;91.30;;;;;;5015805;28;19989;-64
2021/09/15 05:07:30;;;;;;;;;;;15.50;91.40;;;;;;5016548;28;19969;-64
2021/09/15 05:09:55;;;;;;;;;;;15.60;91.40;;;;;;5016263;28;19917;-63
2021/09/15 05:12:21;;;;;;;;;;;15.50;91.50;;;;;;5012672;28;19925;-64
2021/09/15 05:14:47;;;;;;;;;;;15.50;91.60;;;;;;4973998;28;20274;-64
2021/09/15 05:17:13;;;;;;;;;;;15.50;91.60;;;;;;4974974;28;20005;-64
2021/09/15 05:19:39;;;;;;;;;;;15.50;91.60;;;;;;5007341;28;19917;-63
2021/09/15 05:22:05;;;;;;;;;;;15.50;91.70;;;;;;5007010;28;20444;-64
2021/09/15 05:24:31;;;;;;;;;;;15.50;91.80;;;;;;4974597;28;20013;-64
2021/09/15 05:26:57;;;;;;;;;;;15.50;91.90;;;;;;4983768;28;19925;-64
2021/09/15 05:29:23;;;;;;;;;;;15.60;91.90;;;;;;5007365;28;19917;-64
2021/09/15 05:31:48;;;;;;;;;;;15.60;92.00;;;;;;5006492;28;19918;-62
2021/09/15 05:34:14;;;;;;;;;;;15.60;92.10;;;;;;4992059;28;19921;-63
2021/09/15 05:36:41;;;;;;;;;;;15.60;92.00;;;;;;5006472;28;19918;-63
2021/09/15 05:39:10;;;;;;;;;;;15.70;92.00;;;;;;5007270;28;19922;-64
2021/09/15 05:41:36;;;;;;;;;;;15.60;92.00;;;;;;5008146;28;19929;-64
2021/09/15 05:44:02;;;;;;;;;;;15.70;92.00;;;;;;4978086;28;19924;-62
2021/09/15 05:46:27;;;;;;;;;;;15.70;92.10;;;;;;4977817;28;19941;-64
2021/09/15 05:48:53;;;;;;;;;;;15.70;92.10;;;;;;5010057;28;20009;-63
2021/09/15 05:51:20;;;;;;;;;;;15.80;92.10;;;;;;5010833;28;19918;-63
2021/09/15 05:53:48;;;;;;;;;;;15.80;92.10;;;;;;5010303;28;20400;-63
2021/09/15 05:56:13;;;;;;;;;;;15.80;92.10;;;;;;4995217;28;19918;-64
2021/09/15 05:58:39;;;;;;;;;;;15.80;92.10;;;;;;5010286;28;20337;-64
2021/09/15 06:01:07;;;;;;;;;;;15.80;92.00;;;;;;5010487;28;19928;-64
2021/09/15 06:03:34;;;;;;;;;;;15.90;92.00;;;;;;5010056;28;19918;-64
2021/09/15 06:06:17;;;;;;;;;;;15.90;92.00;;;;;;5009973;28;20321;-64
2021/09/15 06:08:43;;;;;;;;;;;15.90;91.90;;;;;;5012172;28;19927;-63
2021/09/15 06:11:09;;;;;;;;;;;15.90;91.90;;;;;;5009950;28;19918;-62
2021/09/15 06:13:34;;;;;;;;;;;15.90;91.90;;;;;;5008030;28;19922;-64
2021/09/15 06:16:01;;;;;;;;;;;15.90;91.80;;;;;;5008969;28;19933;-64
2021/09/15 06:18:29;;;;;;;;;;;15.90;91.90;;;;;;4977566;28;19918;-64
2021/09/15 06:21:19;;;;;;;;;;;16.00;92.00;;;;;;5010244;28;20301;-63
2021/09/15 06:23:54;;;;;;;;;;;16.00;91.90;;;;;;5009739;28;20385;-64
2021/09/15 06:26:24;;;;;;;;;;;16.10;91.90;;;;;;4977260;28;19918;-63
2021/09/15 06:28:53;;;;;;;;;;;16.20;91.80;;;;;;4977506;28;19914;-64
2021/09/15 06:31:19;;;;;;;;;;;16.10;91.90;;;;;;4977367;28;19918;-63
2021/09/15 06:33:45;;;;;;;;;;;16.10;91.80;;;;;;4994927;28;19929;-63
2021/09/15 06:36:11;;;;;;;;;;;16.20;91.90;;;;;;4994279;28;19964;-64
2021/09/15 06:38:36;;;;;;;;;;;16.30;91.90;;;;;;4994801;28;19965;-64
2021/09/15 06:41:02;;;;;;;;;;;16.30;91.60;;;;;;4994041;28;19922;-64
2021/09/15 06:43:27;;;;;;;;;;;16.30;91.70;;;;;;4994906;28;19939;-64
2021/09/15 06:45:53;;;;;;;;;;;16.30;91.50;;;;;;4993893;28;20385;-64
2021/09/15 06:48:20;;;;;;;;;;;16.40;91.50;;;;;;4994781;28;19917;-64
2021/09/15 06:50:46;;;;;;;;;;;16.40;91.60;;;;;;4994642;28;19925;-64
2021/09/15 06:53:13;;;;;;;;;;;16.50;91.60;;;;;;4993342;28;19925;-63
2021/09/15 06:55:40;;;;;;;;;;;16.60;91.70;;;;;;4994181;28;19954;-64
2021/09/15 06:58:06;;;;;;;;;;;16.70;91.70;;;;;;4994056;28;19973;-64
2021/09/15 07:00:34;;;;;;;;;;;16.80;91.60;;;;;;4993265;28;19921;-63
2021/09/15 07:02:59;;;;;;;;;;;16.80;91.40;;;;;;4993986;28;19925;-64
2021/09/15 07:05:25;;;;;;;;;;;16.80;91.20;;;;;;4993901;28;19922;-64
2021/09/15 07:07:50;;;;;;;;;;;16.80;91.10;;;;;;4993761;28;19918;-64
2021/09/15 07:10:18;;;;;;;;;;;16.60;91.10;;;;;;4994111;28;19917;-64
2021/09/15 07:12:44;;;;;;;;;;;16.70;91.10;;;;;;4993719;28;19917;-64
2021/09/15 07:15:10;;;;;;;;;;;16.60;91.10;;;;;;4993955;28;19917;-64
2021/09/15 07:17:36;;;;;;;;;;;16.50;91.10;;;;;;4994080;28;19918;-64
2021/09/15 07:20:02;;;;;;;;;;;16.50;91.20;;;;;;4976245;28;19973;-64
2021/09/15 07:22:30;;;;;;;;;;;16.50;91.20;;;;;;4993947;28;19918;-64
2021/09/15 07:24:55;;;;;;;;;;;16.60;91.30;;;;;;4993103;28;20385;-64
2021/09/15 07:27:21;;;;;;;;;;;16.60;91.40;;;;;;4993989;28;20021;-64
2021/09/15 07:29:46;;;;;;;;;;;16.60;91.50;;;;;;4993359;28;20013;-64
2021/09/15 07:32:12;;;;;;;;;;;16.70;91.50;;;;;;4993623;28;19918;-65
2021/09/15 07:34:41;;;;;;;;;;;16.70;91.50;;;;;;4975710;28;19925;-64
2021/09/15 07:37:07;;;;;;;;;;;16.70;91.30;;;;;;4993629;28;19976;-63
2021/09/15 07:39:32;;;;;;;;;;;16.80;91.50;;;;;;4976363;28;19922;-64
2021/09/15 07:41:58;;;;;;;;;;;16.80;91.30;;;;;;4993060;28;19922;-65
2021/09/15 07:44:24;;;;;;;;;;;16.80;91.20;;;;;;4993351;28;19918;-64
2021/09/15 07:46:49;;;;;;;;;;;16.80;91.20;;;;;;4975633;28;20259;-64
2021/09/15 07:49:15;;;;;;;;;;;16.80;91.20;;;;;;4993475;28;20390;-64
2021/09/15 07:51:40;;;;;;;;;;;16.90;91.50;;;;;;4993006;28;19975;-64
2021/09/15 07:54:06;;;;;;;;;;;16.90;91.60;;;;;;4993334;28;19924;-65
2021/09/15 07:56:32;;;;;;;;;;;17.10;91.60;;;;;;4992647;28;20004;-64
2021/09/15 07:58:57;;;;;;;;;;;17.20;91.70;;;;;;4976114;28;19918;-64
2021/09/15 08:01:25;;;;;;;;;;;17.20;91.50;;;;;;4993186;28;20417;-64
2021/09/15 08:03:51;;;;;;;;;;;17.30;91.50;;;;;;4992929;28;20386;-64
2021/09/15 08:06:17;;;;;;;;;;;17.30;91.50;;;;;;4992731;28;20409;-64
2021/09/15 08:08:43;;;;;;;;;;;17.40;91.50;;;;;;4992641;28;19918;-64
2021/09/15 08:11:08;;;;;;;;;;;17.40;91.40;;;;;;4975627;28;20374;-64
2021/09/15 08:13:34;;;;;;;;;;;17.40;91.30;;;;;;4992700;28;20421;-64
2021/09/15 08:15:59;;;;;;;;;;;17.50;91.10;;;;;;4975331;28;20312;-64
2021/09/15 08:18:25;;;;;;;;;;;17.40;90.90;;;;;;4992610;28;20004;-63
2021/09/15 08:20:50;;;;;;;;;;;17.40;91.00;;;;;;4992828;28;20439;-64
2021/09/15 08:23:18;;;;;;;;;;;17.40;91.00;;;;;;4984337;28;19918;-65
2021/09/15 08:25:44;;;;;;;;;;;17.30;90.80;;;;;;4992578;28;19924;-65
2021/09/15 08:28:09;;;;;;;;;;;17.30;90.90;;;;;;4992379;28;20353;-64
2021/09/15 08:30:35;;;;;;;;;;;17.30;91.00;;;;;;4992763;28;19925;-64
2021/09/15 08:33:01;;;;;;;;;;;17.30;91.00;;;;;;4992706;28;19925;-64
2021/09/15 08:35:26;;;;;;;;;;;17.30;90.90;;;;;;4990758;28;19922;-64
2021/09/15 08:37:52;;;;;;;;;;;17.30;90.90;;;;;;4992797;28;19924;-64
2021/09/15 08:40:18;;;;;;;;;;;17.30;91.00;;;;;;4992088;28;20001;-64
2021/09/15 08:42:43;;;;;;;;;;;17.30;91.00;;;;;;4992653;28;19921;-65
2021/09/15 08:45:10;;;;;;;;;;;17.30;91.10;;;;;;4991679;28;19996;-65
2021/09/15 08:47:37;;;;;;;;;;;17.30;91.10;;;;;;4992687;28;19925;-63
2021/09/15 08:50:04;;;;;;;;;;;17.30;91.20;;;;;;4992443;28;20358;-64
2021/09/15 08:52:29;;;;;;;;;;;17.40;91.40;;;;;;4992043;28;19918;-64
2021/09/15 08:54:55;;;;;;;;;;;17.50;91.40;;;;;;4992122;28;20207;-65
2021/09/15 08:57:21;;;;;;;;;;;17.60;91.60;;;;;;4992026;28;20008;-65
2021/09/15 08:59:46;;;;;;;;;;;17.90;91.80;;;;;;4992463;28;19918;-65
2021/09/15 09:02:12;;;;;;;;;;;17.90;91.80;;;;;;4991864;28;19928;-64
2021/09/15 09:04:50;;;;;;;;;;;18.10;91.50;;;;;;4992068;28;20013;-64
2021/09/15 09:07:16;;;;;;;;;;;18.10;91.00;;;;;;4992344;28;19928;-64
2021/09/15 09:09:45;;;;;;;;;;;18.10;90.90;;;;;;4992198;28;19921;-64
2021/09/15 09:12:11;;;;;;;;;;;18.10;90.90;;;;;;4991838;28;19924;-63
2021/09/15 09:14:36;;;;;;;;;;;18.10;90.60;;;;;;4992390;28;19918;-65
2021/09/15 09:17:02;;;;;;;;;;;18.00;90.50;;;;;;4993537;28;19917;-64
2021/09/15 09:19:28;;;;;;;;;;;17.90;90.60;;;;;;4996490;28;20448;-64
2021/09/15 09:21:57;;;;;;;;;;;17.90;90.50;;;;;;4978632;28;19922;-64
2021/09/15 09:24:24;;;;;;;;;;;17.80;90.50;;;;;;4994397;28;20381;-63
2021/09/15 09:27:00;;;;;;;;;;;17.70;90.60;;;;;;4978695;28;20333;-62
2021/09/15 09:29:34;;;;;;;;;;;17.70;90.80;;;;;;4978419;28;19918;-64
2021/09/15 09:32:06;;;;;;;;;;;17.70;90.70;;;;;;4978506;28;19917;-63
2021/09/15 09:34:45;;;;;;;;;;;17.70;90.80;;;;;;4978238;28;19925;-63
2021/09/15 09:37:21;;;;;;;;;;;17.60;90.80;;;;;;4995898;28;19917;-64
2021/09/15 09:39:55;;;;;;;;;;;17.60;90.80;;;;;;4978238;28;19918;-64
2021/09/15 09:42:23;;;;;;;;;;;17.60;90.80;;;;;;4995520;28;19922;-64
2021/09/15 09:44:48;;;;;;;;;;;17.50;90.70;;;;;;4995126;28;19917;-64
2021/09/15 09:47:33;;;;;;;;;;;17.50;90.80;;;;;;4995513;28;19941;-64
2021/09/15 09:50:05;;;;;;;;;;;17.40;90.90;;;;;;4995713;28;19925;-64
2021/09/15 09:52:52;;;;;;;;;;;17.40;91.10;;;;;;4977844;28;19918;-65
2021/09/15 09:55:18;;;;;;;;;;;17.40;91.30;;;;;;4995304;28;19972;-65
2021/09/15 09:57:44;;;;;;;;;;;17.40;91.30;;;;;;4995516;28;19918;-63
2021/09/15 10:00:10;;;;;;;;;;;17.50;91.50;;;;;;4995310;28;19918;-64
2021/09/15 10:02:37;;;;;;;;;;;17.50;91.50;;;;;;4995447;28;19914;-63
2021/09/15 10:05:03;;;;;;;;;;;17.50;91.60;;;;;;4994539;28;19976;-64
2021/09/15 10:07:29;;;;;;;;;;;17.60;91.70;;;;;;4995383;28;20047;-64
2021/09/15 10:09:54;;;;;;;;;;;17.70;91.70;;;;;;4995011;28;19925;-65
2021/09/15 10:12:20;;;;;;;;;;;17.80;91.70;;;;;;4995276;28;19925;-63
2021/09/15 10:14:46;;;;;;;;;;;17.80;91.90;;;;;;4994784;28;19921;-63
2021/09/15 10:17:16;;;;;;;;;;;17.90;92.00;;;;;;4995159;28;19928;-65
2021/09/15 10:19:46;;;;;;;;;;;18.00;91.80;;;;;;4994641;28;19925;-64
2021/09/15 10:22:12;;;;;;;;;;;18.00;91.60;;;;;;4995040;28;19925;-64
2021/09/15 10:24:47;;;;;;;;;;;18.00;91.60;;;;;;4994348;28;19918;-64
2021/09/15 10:27:12;;;;;;;;;;;18.00;91.70;;;;;;4994912;28;19925;-65
2021/09/15 10:29:40;;;;;;;;;;;18.00;91.70;;;;;;4994886;28;20370;-65
2021/09/15 10:32:14;;;;;;;;;;;17.90;91.60;;;;;;4994443;28;19925;-65
2021/09/15 10:34:40;;;;;;;;;;;17.90;91.60;;;;;;4994118;28;19918;-65
2021/09/15 10:37:05;;;;;;;;;;;17.80;91.60;;;;;;4994831;28;20400;-64
2021/09/15 10:39:31;;;;;;;;;;;17.80;91.70;;;;;;4994682;28;19917;-64
2021/09/15 10:41:57;;;;;;;;;;;17.80;91.90;;;;;;4994375;28;19973;-63
2021/09/15 10:44:23;;;;;;;;;;;17.80;91.90;;;;;;4994597;28;20348;-64
2021/09/15 10:46:49;;;;;;;;;;;17.90;92.10;;;;;;4994105;28;19918;-64
2021/09/15 10:49:18;;;;;;;;;;;18.00;92.20;;;;;;4994617;28;19968;-64
2021/09/15 10:51:45;;;;;;;;;;;18.10;92.30;;;;;;4994082;28;19964;-65
2021/09/15 10:54:29;;;;;;;;;;;18.20;92.30;;;;;;4994489;28;19914;-64
2021/09/15 10:57:10;;;;;;;;;;;18.30;92.20;;;;;;4993905;28;19918;-65
2021/09/15 10:59:51;;;;;;;;;;;18.30;92.20;;;;;;4994289;28;19926;-64
2021/09/15 11:02:24;;;;;;;;;;;18.30;91.80;;;;;;4993931;28;19922;-64
2021/09/15 11:04:49;;;;;;;;;;;18.30;91.90;;;;;;4993837;28;19968;-64
2021/09/15 11:07:41;;;;;;;;;;;18.30;91.80;;;;;;4993878;28;19922;-65
2021/09/15 11:10:07;;;;;;;;;;;18.20;91.90;;;;;;4970796;28;20385;-64
2021/09/15 11:12:42;;;;;;;;;;;18.20;91.70;;;;;;4994427;28;19922;-64
2021/09/15 11:15:22;;;;;;;;;;;18.10;91.70;;;;;;4976050;28;19960;-65
2021/09/15 11:17:48;;;;;;;;;;;18.20;91.90;;;;;;4994260;28;20325;-64
2021/09/15 11:20:14;;;;;;;;;;;18.20;92.00;;;;;;4993409;28;19918;-65
2021/09/15 11:22:39;;;;;;;;;;;18.20;92.20;;;;;;4993922;28;20091;-64
2021/09/15 11:25:05;;;;;;;;;;;18.20;92.20;;;;;;4993603;28;19922;-65
2021/09/15 11:27:30;;;;;;;;;;;18.30;92.40;;;;;;4993587;28;19976;-65
2021/09/15 11:29:56;;;;;;;;;;;18.40;92.10;;;;;;4994032;28;19925;-64
2021/09/15 11:32:23;;;;;;;;;;;18.40;92.10;;;;;;4993278;28;19918;-64
2021/09/15 11:34:50;;;;;;;;;;;18.40;92.00;;;;;;4993481;28;20421;-65
2021/09/15 11:37:17;;;;;;;;;;;18.40;92.00;;;;;;4993116;28;19922;-65
2021/09/15 11:39:42;;;;;;;;;;;18.40;92.10;;;;;;4993038;28;19918;-63
2021/09/15 11:42:08;;;;;;;;;;;18.30;92.00;;;;;;4992880;28;19963;-63
2021/09/15 11:44:34;;;;;;;;;;;18.30;91.90;;;;;;4993121;28;19918;-64
2021/09/15 11:47:01;;;;;;;;;;;18.30;91.90;;;;;;4992682;28;19945;-65
2021/09/15 11:49:30;;;;;;;;;;;18.30;92.20;;;;;;4993370;28;19918;-64
2021/09/15 11:51:57;;;;;;;;;;;18.30;92.30;;;;;;4993326;28;19925;-64
2021/09/15 11:54:24;;;;;;;;;;;18.40;92.30;;;;;;4992689;28;19918;-65
2021/09/15 11:59:16;;;;;;;;;;;18.30;92.30;;;;;;4992878;28;20378;-65
2021/09/15 12:01:42;;;;;;;;;;;18.30;92.30;;;;;;4993138;28;19961;-70
2021/09/15 12:04:08;;;;;;;;;;;18.30;92.40;;;;;;4992806;28;20020;-64
2021/09/15 12:06:34;;;;;;;;;;;18.40;92.50;;;;;;4992670;28;19921;-64
2021/09/15 12:09:00;;;;;;;;;;;18.40;92.60;;;;;;4992742;28;19918;-64
2021/09/15 12:11:37;;;;;;;;;;;18.40;92.50;;;;;;4992984;28;20283;-64
2021/09/15 12:14:05;;;;;;;;;;;18.40;92.50;;;;;;4975239;28;19918;-66
2021/09/15 12:16:31;;;;;;;;;;;18.40;92.50;;;;;;4992584;28;19921;-64
2021/09/15 12:18:57;;;;;;;;;;;18.40;92.40;;;;;;4992736;28;20390;-65
2021/09/15 12:21:23;;;;;;;;;;;18.40;92.50;;;;;;4992842;28;19922;-64
2021/09/15 12:23:49;;;;;;;;;;;18.40;92.60;;;;;;4992753;28;19918;-65
2021/09/15 12:26:23;;;;;;;;;;;18.40;92.60;;;;;;4974898;28;19918;-63
2021/09/15 12:28:58;;;;;;;;;;;18.50;92.70;;;;;;4992759;28;19918;-64
2021/09/15 12:31:23;;;;;;;;;;;18.50;92.60;;;;;;4992376;28;19917;-64
2021/09/15 12:33:49;;;;;;;;;;;18.40;92.60;;;;;;4992817;28;19921;-65
2021/09/15 12:36:16;;;;;;;;;;;18.40;92.60;;;;;;4991939;28;19924;-63
2021/09/15 12:38:47;;;;;;;;;;;18.40;92.60;;;;;;4992594;28;19922;-64
2021/09/15 12:41:13;;;;;;;;;;;18.40;92.60;;;;;;4992058;28;19925;-63
2021/09/15 12:43:39;;;;;;;;;;;18.30;92.60;;;;;;4992609;28;19918;-64
2021/09/15 12:46:20;;;;;;;;;;;20.40;93.20;;;;;;4991799;28;19974;-64
2021/09/15 12:48:45;;;;;;;;;;;18.20;92.60;;;;;;4992440;28;19952;-64
2021/09/15 12:51:15;;;;;;;;;;;18.20;92.60;;;;;;4991281;28;19925;-65
2021/09/15 12:53:45;;;;;;;;;;;18.10;92.60;;;;;;4992408;28;19918;-64
2021/09/15 12:56:10;;;;;;;;;;;18.00;92.60;;;;;;4991648;28;19925;-64
2021/09/15 12:58:36;;;;;;;;;;;18.00;92.60;;;;;;4992384;28;19918;-64
2021/09/15 13:01:05;;;;;;;;;;;17.90;92.80;;;;;;4991861;28;19921;-64
2021/09/15 13:03:37;;;;;;;;;;;17.90;92.80;;;;;;4975094;28;19917;-64
2021/09/15 13:06:03;;;;;;;;;;;17.90;92.80;;;;;;4991260;28;19922;-63
2021/09/15 13:08:30;;;;;;;;;;;17.90;92.80;;;;;;4992818;28;19925;-64
2021/09/15 13:10:57;;;;;;;;;;;17.80;92.80;;;;;;4992055;28;19918;-65
2021/09/15 13:13:23;;;;;;;;;;;17.70;92.80;;;;;;4992452;28;19953;-64
2021/09/15 13:15:49;;;;;;;;;;;17.60;92.90;;;;;;4991896;28;20349;-65
2021/09/15 13:18:16;;;;;;;;;;;17.60;92.90;;;;;;4991862;28;19953;-64
2021/09/15 13:20:42;;;;;;;;;;;17.50;93.00;;;;;;4991616;28;19921;-64
2021/09/15 13:23:08;;;;;;;;;;;17.40;93.10;;;;;;4991840;28;19924;-63
2021/09/15 13:25:34;;;;;;;;;;;17.30;93.20;;;;;;4991863;28;19965;-63
2021/09/15 13:28:00;;;;;;;;;;;17.30;93.60;;;;;;4991860;28;20441;-64
2021/09/15 13:34:05;;;;;;;;;;;17.20;93.60;;;;;;4968463;28;20000;-64
2021/09/15 13:36:34;;;;;;;;;;;17.10;93.60;;;;;;4991674;28;19924;-65
2021/09/15 13:39:00;;;;;;;;;;;17.10;93.80;;;;;;4991648;28;20013;-65
2021/09/15 13:41:26;;;;;;;;;;;17.10;93.90;;;;;;4991882;28;20259;-65
2021/09/15 13:43:52;;;;;;;;;;;17.10;94.10;;;;;;4991641;28;20236;-65
2021/09/15 13:46:17;;;;;;;;;;;17.10;94.10;;;;;;4991659;28;19918;-64
2021/09/15 13:48:43;;;;;;;;;;;17.10;94.20;;;;;;4991732;28;19918;-65
2021/09/15 13:51:08;;;;;;;;;;;17.10;94.30;;;;;;4992112;28;19918;-65
2021/09/15 13:53:35;;;;;;;;;;;17.10;94.40;;;;;;4991512;28;19922;-64
2021/09/15 13:56:01;;;;;;;;;;;17.10;94.40;;;;;;4991657;28;19918;-65
2021/09/15 13:58:26;;;;;;;;;;;17.10;94.40;;;;;;4974245;28;20017;-64
2021/09/15 14:00:52;;;;;;;;;;;17.20;94.50;;;;;;4991335;28;20012;-65
2021/09/15 14:03:18;;;;;;;;;;;17.20;94.50;;;;;;4994025;28;19918;-64
2021/09/15 14:05:43;;;;;;;;;;;17.20;94.50;;;;;;4972149;28;19966;-64
2021/09/15 14:08:10;;;;;;;;;;;17.10;94.60;;;;;;4976204;28;19918;-65
2021/09/15 14:10:36;;;;;;;;;;;17.10;94.60;;;;;;4977568;28;20298;-65
2021/09/15 14:13:02;;;;;;;;;;;17.10;94.70;;;;;;4995185;28;19925;-64
2021/09/15 14:15:28;;;;;;;;;;;17.10;94.70;;;;;;4994280;28;19918;-64
2021/09/15 14:17:54;;;;;;;;;;;17.10;94.80;;;;;;4995265;28;19925;-64
2021/09/15 14:20:20;;;;;;;;;;;17.10;94.90;;;;;;4994817;28;19918;-63
2021/09/15 14:22:46;;;;;;;;;;;17.20;95.00;;;;;;4995262;28;19917;-65
2021/09/15 14:25:11;;;;;;;;;;;17.20;95.00;;;;;;4994736;28;19928;-64
2021/09/15 14:27:37;;;;;;;;;;;17.20;95.00;;;;;;4994699;28;19918;-64
2021/09/15 14:30:03;;;;;;;;;;;17.30;95.10;;;;;;4995117;28;19918;-64
2021/09/15 14:32:29;;;;;;;;;;;17.30;95.10;;;;;;4994836;28;19918;-65
2021/09/15 14:34:54;;;;;;;;;;;17.30;95.20;;;;;;4994614;28;19972;-65
2021/09/15 14:37:20;;;;;;;;;;;17.40;95.30;;;;;;5009683;28;19924;-64
2021/09/15 14:39:45;;;;;;;;;;;17.40;95.30;;;;;;4994902;28;19918;-65